Time;durP1;ratioP1;P1;durP2;ratioP2;P2;SDS_P1;SDS_P2;PMS_P1;PMS_P2;Temp;Humidity;BMP_temperature;BMP_pressure;BME280_temperature;BME280_humidity;BME280_pressure;Samples;Min_cycle;Max_cycle;Signal;HPM_P1;HPM_P2
2022/01/22 00:00:30;;;;;;;8.10;3.27;;;-3.70;97.30;;;;;;5012088;28;20217;-54
2022/01/22 00:02:56;;;;;;;7.17;2.97;;;-3.60;97.10;;;;;;5011827;28;20213;-54
2022/01/22 00:05:22;;;;;;;7.73;3.20;;;-3.60;97.10;;;;;;5011154;28;20530;-54
2022/01/22 00:07:49;;;;;;;7.97;3.60;;;-3.60;96.90;;;;;;5011877;28;20185;-54
2022/01/22 00:10:19;;;;;;;9.23;3.47;;;-3.60;96.90;;;;;;4993876;28;20659;-56
2022/01/22 00:15:18;;;;;;;7.67;3.47;;;-3.60;97.00;;;;;;5011550;28;20180;-54
2022/01/22 00:17:45;;;;;;;9.10;3.20;;;-3.60;97.00;;;;;;5011920;28;20535;-53
2022/01/22 00:20:14;;;;;;;5.33;3.13;;;-3.60;97.00;;;;;;5011388;28;20213;-53
2022/01/22 00:22:39;;;;;;;5.87;3.20;;;-3.60;97.10;;;;;;5011459;28;20244;-55
2022/01/22 00:25:09;;;;;;;6.63;2.77;;;-3.60;97.30;;;;;;5011573;28;20212;-53
2022/01/22 00:27:38;;;;;;;6.13;2.73;;;-3.60;97.50;;;;;;5011884;28;20178;-54
2022/01/22 00:30:10;;;;;;;8.60;3.17;;;-3.70;97.50;;;;;;5011167;28;20298;-54
2022/01/22 00:32:36;;;;;;;11.40;3.70;;;-3.70;97.80;;;;;;5010904;28;20195;-56
2022/01/22 00:35:03;;;;;;;8.60;4.47;;;-3.70;97.80;;;;;;4994010;28;20540;-56
2022/01/22 00:37:29;;;;;;;7.67;3.30;;;-3.70;97.90;;;;;;4993690;28;20190;-53
2022/01/22 00:39:55;;;;;;;5.77;2.80;;;-3.80;98.00;;;;;;5011402;28;20296;-53
2022/01/22 00:42:22;;;;;;;8.10;3.47;;;-3.80;98.20;;;;;;5011299;28;20245;-56
2022/01/22 00:44:52;;;;;;;6.27;3.47;;;-3.80;98.30;;;;;;5011454;28;20192;-53
2022/01/22 00:47:19;;;;;;;7.93;2.90;;;-3.80;98.50;;;;;;5014711;28;20187;-52
2022/01/22 00:49:46;;;;;;;6.33;2.63;;;-3.80;98.60;;;;;;5015305;28;20177;-54
2022/01/22 00:52:12;;;;;;;7.17;2.70;;;-3.80;98.60;;;;;;5014955;28;20180;-55
2022/01/22 00:54:37;;;;;;;5.80;2.80;;;-3.70;98.40;;;;;;5014873;28;20225;-50
2022/01/22 00:57:04;;;;;;;7.90;3.00;;;-3.70;98.20;;;;;;5014858;28;20629;-53
2022/01/22 00:59:30;;;;;;;5.63;2.30;;;-3.60;98.10;;;;;;5015183;28;20177;-55
2022/01/22 01:01:56;;;;;;;5.33;2.40;;;-3.60;97.90;;;;;;5015003;28;20299;-55
2022/01/22 01:04:22;;;;;;;4.20;2.60;;;-3.60;98.10;;;;;;5015147;28;20206;-55
2022/01/22 01:06:48;;;;;;;6.63;3.17;;;-3.60;98.40;;;;;;5015396;28;20209;-54
2022/01/22 01:09:14;;;;;;;4.53;1.97;;;-3.50;98.70;;;;;;5014982;28;20224;-52
2022/01/22 01:11:46;;;;;;;6.93;2.70;;;-3.50;98.20;;;;;;5014876;28;20193;-54
2022/01/22 01:14:18;;;;;;;7.10;2.40;;;-3.50;98.20;;;;;;5014545;28;20194;-56
2022/01/22 01:16:57;;;;;;;7.77;2.10;;;-3.50;98.30;;;;;;5014859;28;20190;-52
2022/01/22 01:33:11;;;;;;;4.90;2.27;;;-3.40;97.60;;;;;;5014120;28;20194;-55
2022/01/22 01:35:39;;;;;;;5.77;2.30;;;-3.40;97.30;;;;;;4998215;28;20275;-54
2022/01/22 01:38:06;;;;;;;5.10;1.90;;;-3.30;97.20;;;;;;5013940;28;20196;-56
2022/01/22 01:40:34;;;;;;;4.97;1.97;;;-3.30;96.90;;;;;;5014189;28;20243;-52
2022/01/22 01:45:27;;;;;;;3.83;1.87;;;-3.20;96.40;;;;;;5014031;28;20513;-52
2022/01/22 01:48:03;;;;;;;4.53;2.00;;;-3.20;96.30;;;;;;5014612;28;20186;-51
2022/01/22 01:50:31;;;;;;;6.33;2.07;;;-3.20;96.20;;;;;;5014136;28;20177;-50
2022/01/22 01:53:15;;;;;;;5.70;1.77;;;-3.20;96.00;;;;;;5013807;28;20661;-54
2022/01/22 01:56:03;;;;;;;3.63;1.90;;;-3.20;96.10;;;;;;5014015;28;20616;-54
2022/01/22 01:58:28;;;;;;;5.77;1.90;;;-3.20;96.00;;;;;;5012504;28;20190;-56
2022/01/22 02:00:55;;;;;;;8.17;2.03;;;-3.20;96.10;;;;;;5014108;28;20217;-53
2022/01/22 02:03:21;;;;;;;4.33;2.20;;;-3.20;95.90;;;;;;5013671;28;20204;-52
2022/01/22 02:05:47;;;;;;;6.33;2.07;;;-3.20;96.00;;;;;;5014014;28;20178;-54
2022/01/22 02:08:14;;;;;;;6.50;2.10;;;-3.20;95.80;;;;;;4996076;28;20960;-53
2022/01/22 02:10:45;;;;;;;8.53;3.23;;;-3.20;95.70;;;;;;5014043;28;20548;-54
2022/01/22 02:24:12;;;;;;;4.77;2.27;;;-3.20;95.60;;;;;;5013440;28;20203;-57
2022/01/22 02:26:38;;;;;;;4.07;1.90;;;-3.20;95.50;;;;;;5013327;28;20712;-53
2022/01/22 02:29:04;;;;;;;7.80;2.03;;;-3.20;95.50;;;;;;5013326;28;20189;-54
2022/01/22 02:31:39;;;;;;;6.83;2.70;;;-3.20;95.60;;;;;;5013472;28;20186;-54
2022/01/22 02:36:43;;;;;;;5.60;2.13;;;-3.10;95.50;;;;;;5013542;28;20185;-54
2022/01/22 02:39:14;;;;;;;4.33;2.33;;;-3.10;95.80;;;;;;5013087;28;20626;-52
2022/01/22 02:41:49;;;;;;;4.80;2.03;;;-3.10;95.90;;;;;;5012906;28;20566;-52
2022/01/22 02:44:34;;;;;;;6.40;2.20;;;-3.10;96.00;;;;;;5013102;28;20197;-57
2022/01/22 02:47:03;;;;;;;8.67;2.10;;;-3.10;96.00;;;;;;5013156;28;20292;-58
2022/01/22 02:49:29;;;;;;;4.70;2.60;;;-3.10;96.00;;;;;;5012867;28;20186;-55
2022/01/22 02:52:03;;;;;;;2.47;1.67;;;-3.10;96.20;;;;;;4975754;28;20188;-55
2022/01/22 02:54:29;;;;;;;6.53;2.37;;;-3.10;96.30;;;;;;5011384;28;20255;-53
2022/01/22 02:56:55;;;;;;;4.63;1.70;;;-3.10;96.50;;;;;;5012901;28;20193;-57
2022/01/22 02:59:23;;;;;;;7.10;2.53;;;-3.10;96.80;;;;;;5012677;28;20280;-53
2022/01/22 03:01:50;;;;;;;3.50;1.53;;;-3.10;97.00;;;;;;4995535;28;20224;-53
2022/01/22 03:04:15;;;;;;;5.93;2.23;;;-3.10;97.30;;;;;;5012550;28;20212;-57
2022/01/22 03:06:41;;;;;;;8.00;2.50;;;-3.00;97.40;;;;;;5012734;28;20278;-54
2022/01/22 03:09:10;;;;;;;4.57;1.80;;;-3.00;97.50;;;;;;5011789;28;20182;-52
2022/01/22 03:11:45;;;;;;;4.97;2.23;;;-3.00;97.50;;;;;;5012295;28;20657;-50
2022/01/22 03:19:31;;;;;;;4.83;2.20;;;-2.90;98.30;;;;;;5012208;28;20190;-52
2022/01/22 03:22:13;;;;;;;10.17;2.00;;;-2.90;97.90;;;;;;5012505;28;20246;-56
2022/01/22 03:27:26;;;;;;;5.47;1.93;;;-2.90;97.00;;;;;;5012233;28;20656;-50
2022/01/22 03:29:51;;;;;;;6.73;2.33;;;-3.00;96.60;;;;;;5012696;28;20181;-54
2022/01/22 03:32:19;;;;;;;4.40;1.87;;;-3.00;96.60;;;;;;5012142;28;20194;-56
2022/01/22 03:35:07;;;;;;;3.57;1.87;;;-3.00;96.50;;;;;;4994545;28;20185;-55
2022/01/22 03:37:33;;;;;;;3.47;1.57;;;-3.10;96.30;;;;;;5011879;28;20200;-54
2022/01/22 03:39:59;;;;;;;4.43;1.93;;;-3.10;96.50;;;;;;5012238;28;20190;-54
2022/01/22 03:42:24;;;;;;;5.10;1.77;;;-3.20;96.50;;;;;;5011967;28;20539;-55
2022/01/22 03:44:50;;;;;;;3.80;1.93;;;-3.20;97.10;;;;;;5012381;28;20186;-51
2022/01/22 03:47:16;;;;;;;9.37;2.10;;;-3.20;97.20;;;;;;4994562;28;20339;-52
2022/01/22 03:49:42;;;;;;;4.60;2.17;;;-3.20;96.90;;;;;;4994792;28;20698;-56
2022/01/22 03:52:09;;;;;;;8.97;1.90;;;-3.20;97.10;;;;;;5012151;28;20327;-54
2022/01/22 03:54:34;;;;;;;6.17;2.40;;;-3.20;97.10;;;;;;4997684;28;20674;-55
2022/01/22 03:57:00;;;;;;;5.60;2.00;;;-3.20;97.10;;;;;;4992341;28;20187;-53
2022/01/22 03:59:28;;;;;;;7.67;2.70;;;-3.20;97.10;;;;;;4991486;28;20209;-53
2022/01/22 04:04:43;;;;;;;7.40;2.10;;;-3.20;98.50;;;;;;4991859;28;20186;-54
2022/01/22 04:09:56;;;;;;;10.30;2.63;;;-3.30;99.00;;;;;;4992178;28;20268;-53
2022/01/22 04:12:31;;;;;;;4.97;2.10;;;-3.30;98.70;;;;;;4991922;28;20190;-52
2022/01/22 04:15:01;;;;;;;4.80;2.27;;;-3.30;98.60;;;;;;4991796;28;20189;-53
2022/01/22 04:25:34;;;;;;;10.27;2.97;;;-3.30;99.90;;;;;;4995908;28;20278;-53
2022/01/22 04:28:00;;;;;;;6.20;2.37;;;-3.40;99.00;;;;;;4995686;28;20223;-55
2022/01/22 04:30:28;;;;;;;8.90;2.07;;;-3.40;98.80;;;;;;4978600;28;20647;-54
2022/01/22 04:32:54;;;;;;;6.40;2.50;;;-3.40;99.00;;;;;;4996216;28;20174;-54
2022/01/22 04:35:22;;;;;;;9.23;2.40;;;-3.50;98.90;;;;;;4995680;28;20180;-54
2022/01/22 04:37:49;;;;;;;8.63;2.70;;;-3.50;99.00;;;;;;4995879;28;20179;-55
2022/01/22 04:40:17;;;;;;;5.27;2.47;;;-3.50;99.20;;;;;;4995361;28;20253;-56
2022/01/22 04:42:43;;;;;;;6.27;2.50;;;-3.50;98.90;;;;;;4995979;28;20186;-53
2022/01/22 04:55:37;;;;;;;4.00;2.37;;;-3.40;98.10;;;;;;5015103;28;20296;-51
2022/01/22 04:58:03;;;;;;;5.00;2.37;;;-3.30;98.00;;;;;;5015265;28;20252;-51
2022/01/22 05:00:32;;;;;;;3.87;2.57;;;-3.30;97.60;;;;;;5014446;28;20254;-54
2022/01/22 05:03:02;;;;;;;4.47;2.23;;;-3.30;97.50;;;;;;5015180;28;20245;-56
2022/01/22 05:05:29;;;;;;;5.90;2.13;;;-3.30;97.40;;;;;;4997186;28;20181;-50
2022/01/22 05:07:55;;;;;;;10.63;2.90;;;-3.40;97.50;;;;;;5014760;28;20208;-50
2022/01/22 05:10:21;;;;;;;14.53;2.80;;;-3.40;97.60;;;;;;4997133;28;20180;-52
2022/01/22 05:12:47;;;;;;;8.83;2.63;;;-3.50;97.70;;;;;;5015574;28;20538;-55
2022/01/22 05:15:14;;;;;;;9.17;2.37;;;-3.50;97.80;;;;;;5014777;28;20251;-55
2022/01/22 05:17:42;;;;;;;5.17;2.40;;;-3.60;98.00;;;;;;5014821;28;20175;-54
2022/01/22 05:20:18;;;;;;;8.23;2.90;;;-3.70;98.30;;;;;;4981292;28;20622;-54
2022/01/22 05:25:54;;;;;;;8.50;3.03;;;-3.70;98.60;;;;;;5014842;28;20202;-55
2022/01/22 05:39:07;;;;;;;7.00;2.93;;;-3.50;98.90;;;;;;5014469;28;20193;-56
2022/01/22 05:41:33;;;;;;;11.27;3.77;;;-3.50;98.50;;;;;;5013898;28;20673;-51
2022/01/22 05:43:59;;;;;;;7.97;2.93;;;-3.40;98.50;;;;;;5014160;28;20182;-52
2022/01/22 05:46:24;;;;;;;4.90;2.30;;;-3.40;98.20;;;;;;5014320;28;20182;-54
2022/01/22 05:48:50;;;;;;;9.30;3.37;;;-3.30;98.60;;;;;;4996581;28;20218;-55
2022/01/22 05:51:17;;;;;;;13.93;4.17;;;-3.30;98.40;;;;;;5013836;28;20186;-54
2022/01/22 06:01:21;;;;;;;12.77;4.17;;;-3.50;98.50;;;;;;5013557;28;20711;-53
2022/01/22 06:03:47;;;;;;;21.13;5.20;;;-3.50;98.70;;;;;;5013755;28;20248;-55
2022/01/22 06:06:13;;;;;;;15.57;4.37;;;-3.60;99.00;;;;;;4996394;28;20185;-56
2022/01/22 06:08:46;;;;;;;23.20;5.37;;;-3.70;99.70;;;;;;5013637;28;20181;-54
2022/01/22 06:11:21;;;;;;;14.70;6.47;;;-3.70;99.90;;;;;;5013624;28;20194;-52
2022/01/22 06:13:47;;;;;;;11.57;4.20;;;-3.80;99.90;;;;;;4996156;28;20193;-54
2022/01/22 06:16:15;;;;;;;11.87;4.23;;;-3.90;99.90;;;;;;5013328;28;20217;-54
2022/01/22 06:18:42;;;;;;;26.43;8.37;;;-3.90;99.90;;;;;;5013300;28;20184;-56
2022/01/22 06:21:11;;;;;;;11.03;4.23;;;-4.00;99.90;;;;;;5013216;28;20268;-54
2022/01/22 06:23:40;;;;;;;16.97;5.77;;;-4.00;99.90;;;;;;5012893;28;20197;-53
2022/01/22 06:26:07;;;;;;;11.23;3.87;;;-4.00;99.90;;;;;;5013637;28;20176;-50
2022/01/22 06:28:34;;;;;;;13.47;4.47;;;-4.00;99.90;;;;;;5013060;28;20191;-59
2022/01/22 06:31:01;;;;;;;13.67;3.97;;;-4.00;99.90;;;;;;4995792;28;20192;-52
2022/01/22 06:33:27;;;;;;;7.43;3.60;;;-3.90;99.90;;;;;;5012777;28;20186;-52
2022/01/22 06:35:53;;;;;;;10.40;4.07;;;-3.90;99.90;;;;;;4995453;28;20185;-55
2022/01/22 06:38:19;;;;;;;15.50;4.20;;;-3.90;99.90;;;;;;5013427;28;20214;-55
2022/01/22 06:43:31;;;;;;;18.70;6.20;;;-3.90;99.90;;;;;;5012430;28;20208;-55
2022/01/22 06:45:57;;;;;;;19.83;5.10;;;-3.80;99.90;;;;;;5012722;28;20524;-54
2022/01/22 06:48:23;;;;;;;25.63;5.47;;;-3.80;99.80;;;;;;5012692;28;20181;-52
2022/01/22 06:50:49;;;;;;;13.50;4.70;;;-3.60;99.80;;;;;;5012747;28;20185;-53
2022/01/22 06:53:14;;;;;;;13.03;5.17;;;-3.50;99.40;;;;;;5012536;28;20214;-55
2022/01/22 06:55:44;;;;;;;17.67;6.17;;;-3.50;99.40;;;;;;5012477;28;20197;-58
2022/01/22 06:58:10;;;;;;;28.80;6.40;;;-3.40;99.50;;;;;;5012766;28;20546;-57
2022/01/22 07:00:36;;;;;;;16.87;5.83;;;-3.20;99.60;;;;;;5012583;28;20218;-53
2022/01/22 07:03:03;;;;;;;19.37;4.87;;;-3.10;99.00;;;;;;5012570;28;20174;-53
2022/01/22 07:05:29;;;;;;;27.67;6.27;;;-3.00;98.30;;;;;;5012372;28;20258;-53
2022/01/22 07:07:55;;;;;;;15.07;5.77;;;-2.90;98.40;;;;;;5012693;28;20725;-53
2022/01/22 07:10:21;;;;;;;19.73;5.57;;;-2.80;99.20;;;;;;5012416;28;20185;-54
2022/01/22 07:12:46;;;;;;;15.20;5.00;;;-2.60;99.60;;;;;;5012654;28;20186;-55
2022/01/22 07:15:12;;;;;;;14.63;4.57;;;-2.40;99.90;;;;;;5012496;28;20232;-56
2022/01/22 07:17:40;;;;;;;19.53;4.87;;;-2.30;98.20;;;;;;4994438;28;20183;-55
2022/01/22 07:20:15;;;;;;;12.83;4.43;;;-2.20;96.80;;;;;;5012262;28;20186;-55
2022/01/22 07:22:53;;;;;;;11.60;4.80;;;-2.20;96.50;;;;;;5012186;28;20654;-57
2022/01/22 07:25:19;;;;;;;13.80;4.87;;;-2.10;96.30;;;;;;5012224;28;20195;-55
2022/01/22 07:27:45;;;;;;;31.60;6.80;;;-2.10;96.00;;;;;;5003013;28;20605;-55
2022/01/22 07:30:12;;;;;;;26.33;6.20;;;-2.00;97.00;;;;;;5003029;28;20794;-55
2022/01/22 07:32:42;;;;;;;20.30;6.07;;;-1.80;97.10;;;;;;5005662;28;20659;-56
2022/01/22 07:35:09;;;;;;;33.03;6.23;;;-1.80;96.30;;;;;;5002986;28;20241;-55
2022/01/22 07:37:38;;;;;;;19.27;5.40;;;-1.70;95.90;;;;;;5002117;28;20188;-56
2022/01/22 07:40:09;;;;;;;15.57;5.00;;;-1.70;95.60;;;;;;4986880;28;20265;-56
2022/01/22 07:42:36;;;;;;;16.23;5.07;;;-1.60;95.60;;;;;;5006711;28;20645;-56
2022/01/22 07:45:02;;;;;;;20.73;6.00;;;-1.70;95.50;;;;;;5011370;28;20559;-55
2022/01/22 07:47:28;;;;;;;14.50;5.37;;;-1.70;95.50;;;;;;4993341;28;20537;-53
2022/01/22 07:49:54;;;;;;;12.07;5.47;;;-1.70;95.40;;;;;;4992219;28;20195;-54
2022/01/22 07:52:19;;;;;;;22.20;6.73;;;-1.80;95.70;;;;;;4991954;28;20342;-56
2022/01/22 07:54:45;;;;;;;20.67;6.47;;;-1.80;95.80;;;;;;4991463;28;20238;-54
2022/01/22 07:57:11;;;;;;;15.13;6.00;;;-1.70;96.10;;;;;;4991047;28;20281;-58
2022/01/22 07:59:36;;;;;;;11.70;4.90;;;-1.70;95.80;;;;;;4991110;28;20190;-60
2022/01/22 08:02:03;;;;;;;11.97;4.50;;;-1.60;95.80;;;;;;4987003;28;20589;-55
2022/01/22 08:04:30;;;;;;;14.57;4.83;;;-1.70;95.90;;;;;;4990696;28;20272;-53
2022/01/22 08:06:58;;;;;;;15.60;5.07;;;-1.70;95.90;;;;;;4990532;28;20257;-57
2022/01/22 08:09:24;;;;;;;35.53;8.50;;;-1.80;96.00;;;;;;4991762;28;20187;-65
2022/01/22 08:11:50;;;;;;;19.07;7.03;;;-1.80;96.30;;;;;;4980725;28;20289;-56
2022/01/22 08:14:16;;;;;;;17.70;6.17;;;-1.90;96.00;;;;;;4993161;28;20655;-56
2022/01/22 08:16:46;;;;;;;15.43;5.83;;;-1.90;96.10;;;;;;4998688;28;20522;-58
2022/01/22 08:19:13;;;;;;;15.37;5.57;;;-1.80;96.00;;;;;;4992069;28;20195;-58
2022/01/22 08:21:39;;;;;;;18.10;6.90;;;-1.70;95.60;;;;;;4991013;28;20658;-59
2022/01/22 08:24:05;;;;;;;20.90;6.47;;;-1.70;95.50;;;;;;4991034;28;20188;-58
2022/01/22 08:26:36;;;;;;;17.10;6.83;;;-1.80;95.70;;;;;;4991265;28;20195;-55
2022/01/22 08:29:03;;;;;;;16.40;6.03;;;-1.70;95.60;;;;;;4974211;28;20196;-52
2022/01/22 08:36:42;;;;;;;13.10;5.10;;;-1.60;95.40;;;;;;4997833;28;20221;-55
2022/01/22 08:39:08;;;;;;;16.13;5.37;;;-1.60;95.00;;;;;;4974101;28;20200;-57
2022/01/22 08:41:34;;;;;;;12.40;3.70;;;-1.60;94.40;;;;;;4995261;28;20234;-59
2022/01/22 08:44:00;;;;;;;13.83;4.43;;;-1.30;93.90;;;;;;4993528;28;20588;-53
2022/01/22 08:46:29;;;;;;;10.17;2.90;;;-0.30;93.00;;;;;;4991437;28;20188;-66
2022/01/22 08:48:55;;;;;;;7.37;3.57;;;-0.10;91.20;;;;;;5001278;28;20559;-60
2022/01/22 08:51:21;;;;;;;9.37;3.23;;;-0.30;91.10;;;;;;4990799;28;20227;-57
2022/01/22 08:53:48;;;;;;;10.37;3.73;;;-0.60;91.60;;;;;;4991620;28;20326;-62
2022/01/22 08:56:14;;;;;;;15.00;4.63;;;-0.80;91.90;;;;;;4991840;28;20223;-60
2022/01/22 08:58:39;;;;;;;13.90;4.93;;;-1.00;92.30;;;;;;4991560;28;20211;-59
2022/01/22 09:01:06;;;;;;;12.40;4.37;;;-1.10;92.40;;;;;;4991666;28;20637;-50
2022/01/22 09:03:32;;;;;;;10.47;4.47;;;-1.10;92.50;;;;;;4990886;28;20203;-53
2022/01/22 09:05:59;;;;;;;13.57;4.73;;;-1.20;92.40;;;;;;4990587;28;20667;-60
2022/01/22 09:08:26;;;;;;;9.37;4.07;;;-1.40;92.40;;;;;;4995112;28;20543;-58
2022/01/22 09:10:53;;;;;;;13.07;3.80;;;-1.60;92.90;;;;;;4994724;28;20200;-55
2022/01/22 09:13:24;;;;;;;7.20;4.10;;;-1.60;93.40;;;;;;5004290;28;20289;-51
2022/01/22 09:15:53;;;;;;;12.83;3.63;;;-1.70;93.20;;;;;;4991253;28;20218;-55
2022/01/22 09:18:19;;;;;;;9.00;4.00;;;-1.70;93.50;;;;;;4995137;28;20180;-54
2022/01/22 09:21:01;;;;;;;9.23;3.90;;;-1.70;93.70;;;;;;5007847;28;20222;-63
2022/01/22 09:23:29;;;;;;;8.17;3.63;;;-1.70;94.10;;;;;;5001048;28;20538;-54
2022/01/22 09:25:56;;;;;;;8.40;4.27;;;-1.70;94.00;;;;;;4995053;28;20269;-55
2022/01/22 09:28:22;;;;;;;8.23;3.93;;;-1.70;94.20;;;;;;4995144;28;20215;-53
2022/01/22 09:30:48;;;;;;;10.67;4.00;;;-1.60;94.00;;;;;;4994203;28;20203;-54
2022/01/22 09:33:14;;;;;;;13.80;4.03;;;-1.60;94.20;;;;;;4994695;28;20198;-53
2022/01/22 09:35:40;;;;;;;16.97;3.70;;;-1.50;94.10;;;;;;5000201;28;20191;-64
2022/01/22 09:38:06;;;;;;;8.37;3.40;;;-1.50;93.40;;;;;;4994812;28;20187;-54
2022/01/22 09:40:33;;;;;;;6.80;3.87;;;-1.50;93.60;;;;;;4994484;28;20216;-57
2022/01/22 09:42:59;;;;;;;11.87;4.27;;;-1.50;93.80;;;;;;5001364;28;20191;-58
2022/01/22 09:45:30;;;;;;;8.63;4.13;;;-1.50;93.90;;;;;;4994231;28;20507;-63
2022/01/22 09:47:58;;;;;;;8.67;4.10;;;-1.50;93.90;;;;;;4994246;28;20250;-60
2022/01/22 09:50:25;;;;;;;15.23;5.30;;;-1.50;94.10;;;;;;4994036;28;20184;-60
2022/01/22 09:52:52;;;;;;;11.60;4.80;;;-1.40;94.30;;;;;;4993645;28;20228;-60
2022/01/22 09:55:18;;;;;;;14.53;5.10;;;-1.30;93.90;;;;;;4993986;28;20231;-58
2022/01/22 09:57:44;;;;;;;7.27;3.90;;;-1.30;93.40;;;;;;4993863;28;20195;-60
2022/01/22 10:00:13;;;;;;;15.13;4.93;;;-1.20;93.60;;;;;;5006339;28;20249;-60
2022/01/22 10:02:41;;;;;;;7.50;3.87;;;-1.30;93.50;;;;;;5007883;28;20560;-60
2022/01/22 10:05:26;;;;;;;17.87;5.30;;;-1.30;93.60;;;;;;5004266;28;20194;-56
2022/01/22 10:07:53;;;;;;;12.77;4.20;;;-1.30;93.50;;;;;;5010161;28;20568;-57
2022/01/22 10:10:20;;;;;;;7.80;4.13;;;-1.20;93.40;;;;;;5012921;28;20270;-54
2022/01/22 10:12:48;;;;;;;8.23;3.87;;;-1.20;93.20;;;;;;5012950;28;20214;-59
2022/01/22 10:15:19;;;;;;;11.17;4.80;;;-1.10;93.00;;;;;;5013396;28;20186;-55
2022/01/22 10:17:54;;;;;;;11.17;4.33;;;-1.00;93.20;;;;;;5013102;28;20183;-56
2022/01/22 10:20:28;;;;;;;10.33;4.63;;;-0.90;93.30;;;;;;5012880;28;20666;-57
2022/01/22 10:23:00;;;;;;;12.10;4.73;;;-0.90;93.20;;;;;;5012567;28;20540;-56
2022/01/22 10:25:41;;;;;;;10.43;3.93;;;-0.70;93.10;;;;;;4995889;28;20188;-57
2022/01/22 10:28:13;;;;;;;8.80;4.20;;;-0.60;92.50;;;;;;5011382;28;20211;-58
2022/01/22 10:30:43;;;;;;;17.47;4.80;;;-0.50;92.40;;;;;;5011173;28;20267;-57
2022/01/22 10:33:24;;;;;;;15.43;4.37;;;-0.50;93.00;;;;;;5010634;28;20184;-58
2022/01/22 10:35:50;;;;;;;9.40;3.67;;;-0.60;92.30;;;;;;5010738;28;20187;-57
2022/01/22 10:38:18;;;;;;;6.23;3.67;;;-0.80;91.20;;;;;;5010856;28;20175;-56
2022/01/22 10:40:45;;;;;;;10.70;3.90;;;-0.80;91.30;;;;;;5011113;28;20217;-56
2022/01/22 10:43:20;;;;;;;6.73;3.03;;;-0.70;91.10;;;;;;5012561;28;20183;-55
2022/01/22 10:46:20;;;;;;;8.40;2.90;;;-0.80;90.10;;;;;;5012927;28;20381;-57
2022/01/22 10:49:09;;;;;;;6.77;3.13;;;-1.00;90.00;;;;;;5012900;28;20175;-56
2022/01/22 10:51:51;;;;;;;17.60;3.80;;;-1.00;90.00;;;;;;5011372;28;20655;-59
2022/01/22 10:54:22;;;;;;;8.10;3.20;;;-0.80;90.20;;;;;;5012116;28;20667;-61
2022/01/22 10:56:48;;;;;;;6.77;2.80;;;-0.70;89.20;;;;;;4994191;28;20190;-54
2022/01/22 10:59:19;;;;;;;9.17;3.17;;;-0.70;88.50;;;;;;5012476;28;20188;-54
2022/01/22 11:01:47;;;;;;;5.03;2.13;;;-0.70;88.50;;;;;;5011802;28;20210;-53
2022/01/22 11:04:18;;;;;;;6.07;2.67;;;-0.70;88.00;;;;;;5012348;28;20179;-60
2022/01/22 11:06:56;;;;;;;11.30;2.30;;;-0.60;88.30;;;;;;5012052;28;20277;-58
2022/01/22 11:09:23;;;;;;;6.97;2.83;;;-0.50;87.20;;;;;;5011727;28;20183;-55
2022/01/22 11:11:51;;;;;;;5.23;2.40;;;-0.40;86.60;;;;;;5010803;28;20179;-57
2022/01/22 11:14:17;;;;;;;5.37;2.27;;;-0.30;86.40;;;;;;5010363;28;20302;-56
2022/01/22 11:16:45;;;;;;;19.07;3.67;;;-0.30;86.20;;;;;;4992984;28;20262;-57
2022/01/22 11:19:13;;;;;;;5.13;2.13;;;-0.10;84.40;;;;;;5010812;28;20668;-56
2022/01/22 11:21:44;;;;;;;5.97;2.60;;;-0.10;82.30;;;;;;5010608;28;20231;-61
2022/01/22 11:24:13;;;;;;;4.43;1.80;;;-0.10;82.60;;;;;;5010753;28;20266;-59
2022/01/22 11:26:39;;;;;;;5.40;1.83;;;-0.10;82.40;;;;;;5011182;28;20190;-55
2022/01/22 11:29:06;;;;;;;4.67;1.77;;;-0.10;82.60;;;;;;5012077;28;20269;-57
2022/01/22 11:31:34;;;;;;;4.00;1.60;;;-0.20;81.30;;;;;;4993261;28;20273;-56
2022/01/22 11:34:02;;;;;;;7.17;1.50;;;-0.20;80.90;;;;;;5012117;28;20635;-55
2022/01/22 11:36:33;;;;;;;3.17;1.40;;;-0.30;81.00;;;;;;5011964;28;20238;-56
2022/01/22 11:39:00;;;;;;;2.47;1.23;;;-0.40;80.50;;;;;;5011252;28;20190;-57
2022/01/22 11:41:27;;;;;;;8.23;2.53;;;-0.30;81.20;;;;;;5011590;28;20301;-56
2022/01/22 11:44:17;;;;;;;5.90;1.93;;;-0.30;81.00;;;;;;4993436;28;20720;-55
2022/01/22 11:46:58;;;;;;;5.53;1.50;;;-0.20;80.30;;;;;;5011339;28;20187;-54
2022/01/22 11:49:30;;;;;;;7.27;1.63;;;-0.20;80.00;;;;;;5011706;28;20253;-57
2022/01/22 11:52:08;;;;;;;6.03;1.93;;;-0.10;80.40;;;;;;5011148;28;20195;-59
2022/01/22 11:54:59;;;;;;;9.63;3.25;;;0.10;80.00;;;;;;5011201;28;20432;-58
2022/01/22 11:57:29;;;;;;;3.60;1.50;;;0.20;79.90;;;;;;5011795;28;20631;-55
2022/01/22 12:00:22;;;;;;;5.77;2.20;;;0.30;79.00;;;;;;4993878;28;20192;-57
2022/01/22 12:03:03;;;;;;;8.03;1.60;;;0.40;78.80;;;;;;4993679;28;20183;-56
2022/01/22 12:05:29;;;;;;;7.33;1.90;;;0.40;77.80;;;;;;5012017;28;20179;-55
2022/01/22 12:07:59;;;;;;;7.43;2.13;;;0.50;78.90;;;;;;5011499;28;20194;-58
2022/01/22 12:14:26;;;;;;;7.10;2.10;;;0.50;77.90;;;;;;5011654;28;20234;-57
2022/01/22 12:16:13;;;;;;;16.37;4.23;;;0.40;77.20;;;;;;5011681;28;20187;-55
2022/01/22 12:18:47;;;;;;;7.23;2.37;;;0.50;77.80;;;;;;5011223;28;20180;-55
2022/01/22 12:21:33;;;;;;;9.83;2.43;;;0.70;77.70;;;;;;5011133;28;20727;-56
2022/01/22 12:23:59;;;;;;;6.50;1.87;;;0.90;77.70;;;;;;5011490;28;20667;-56
2022/01/22 12:26:46;;;;;;;3.23;1.63;;;1.30;76.50;;;;;;5011528;28;20212;-53
2022/01/22 12:29:36;;;;;;;8.90;2.17;;;1.80;74.00;;;;;;4993664;28;20181;-57
2022/01/22 12:32:08;;;;;;;5.77;1.90;;;2.70;73.10;;;;;;5011109;28;20729;-56
2022/01/22 12:34:52;;;;;;;4.10;2.23;;;3.20;69.90;;;;;;5011224;28;20188;-54
2022/01/22 12:37:20;;;;;;;6.50;2.33;;;3.60;69.00;;;;;;5011218;28;20180;-56
2022/01/22 12:39:50;;;;;;;7.30;2.27;;;4.30;67.60;;;;;;5011201;28;20270;-52
2022/01/22 12:42:27;;;;;;;6.53;2.60;;;4.70;65.40;;;;;;5012716;28;20221;-55
2022/01/22 12:44:59;;;;;;;2.90;1.50;;;4.00;63.40;;;;;;4997134;28;20195;-55
2022/01/22 12:47:27;;;;;;;8.03;2.77;;;2.80;65.20;;;;;;5015212;28;20193;-57
2022/01/22 12:50:06;;;;;;;6.63;1.80;;;1.80;67.90;;;;;;5014642;28;20186;-54
2022/01/22 12:52:33;;;;;;;7.67;2.40;;;1.20;69.70;;;;;;5015692;28;20203;-54
2022/01/22 12:55:00;;;;;;;9.57;2.53;;;0.90;70.90;;;;;;5014411;28;20229;-54
2022/01/22 12:57:28;;;;;;;4.60;2.33;;;0.70;71.90;;;;;;5015253;28;20185;-55
2022/01/22 13:00:16;;;;;;;5.50;2.47;;;0.70;73.00;;;;;;5014317;28;20592;-52
2022/01/22 13:02:56;;;;;;;7.53;2.10;;;0.50;72.20;;;;;;5014354;28;20678;-55
2022/01/22 13:05:24;;;;;;;8.03;2.87;;;0.50;72.40;;;;;;5014745;28;20215;-54
2022/01/22 13:07:55;;;;;;;7.90;2.10;;;0.50;73.10;;;;;;5014589;28;20176;-55
2022/01/22 13:10:27;;;;;;;8.10;2.20;;;0.30;73.50;;;;;;5014787;28;20653;-59
2022/01/22 13:12:56;;;;;;;8.77;2.30;;;0.20;75.60;;;;;;5015201;28;20183;-56
2022/01/22 13:15:21;;;;;;;7.57;2.37;;;0.10;76.50;;;;;;5014851;28;20270;-55
2022/01/22 13:17:57;;;;;;;6.93;1.93;;;0.10;78.60;;;;;;5014835;28;20603;-55
2022/01/22 13:20:25;;;;;;;8.87;3.17;;;0.00;79.90;;;;;;5014679;28;20619;-53
2022/01/22 13:22:52;;;;;;;6.37;2.60;;;-0.10;81.30;;;;;;5014959;28;20195;-55
2022/01/22 13:25:18;;;;;;;5.03;2.80;;;-0.10;81.70;;;;;;5014051;28;20245;-53
2022/01/22 13:27:59;;;;;;;6.33;2.90;;;-0.10;81.80;;;;;;5014427;28;20233;-58
2022/01/22 13:30:34;;;;;;;8.87;2.60;;;0.00;82.80;;;;;;4996743;28;20234;-55
2022/01/22 13:33:14;;;;;;;6.97;2.37;;;0.00;83.30;;;;;;5013935;28;20179;-56
2022/01/22 13:36:13;;;;;;;9.17;2.13;;;0.00;85.10;;;;;;5014516;28;20210;-54
2022/01/22 13:49:39;;;;;;;7.57;2.00;;;-0.20;92.50;;;;;;5014204;28;20186;-56
2022/01/22 13:52:08;;;;;;;6.03;1.80;;;-0.40;93.50;;;;;;5013267;28;20195;-55
2022/01/22 13:54:40;;;;;;;5.50;2.10;;;-0.50;94.40;;;;;;5012158;28;20246;-54
2022/01/22 13:57:09;;;;;;;5.97;1.90;;;-0.60;95.20;;;;;;5013525;28;20175;-56
2022/01/22 13:59:37;;;;;;;8.60;2.80;;;-0.70;95.90;;;;;;5013503;28;20626;-55
2022/01/22 14:02:09;;;;;;;6.80;2.83;;;-0.80;96.80;;;;;;5013247;28;20211;-56
2022/01/22 14:05:01;;;;;;;6.10;1.90;;;-0.90;96.80;;;;;;5013233;28;20179;-55
2022/01/22 14:07:35;;;;;;;6.53;1.77;;;-0.90;97.10;;;;;;4995884;28;20180;-56
2022/01/22 14:10:13;;;;;;;4.60;1.80;;;-1.00;97.80;;;;;;5013124;28;20195;-57
2022/01/22 14:12:44;;;;;;;5.67;1.87;;;-1.00;98.30;;;;;;5013093;28;20270;-56
2022/01/22 14:15:14;;;;;;;4.73;2.17;;;-1.00;98.90;;;;;;4995317;28;20538;-60
2022/01/22 14:20:38;;;;;;;8.53;2.77;;;-1.10;99.80;;;;;;4993969;28;20223;-56
2022/01/22 14:23:08;;;;;;;12.90;4.33;;;-1.10;99.90;;;;;;4993620;28;20192;-56
2022/01/22 14:25:57;;;;;;;8.00;2.70;;;-1.10;99.90;;;;;;4993340;28;20211;-56
2022/01/22 14:28:43;;;;;;;10.50;3.73;;;-1.20;99.90;;;;;;4994154;28;20541;-55
2022/01/22 14:31:33;;;;;;;8.83;3.70;;;-1.30;99.90;;;;;;4992674;28;20324;-55
2022/01/22 14:34:03;;;;;;;8.30;3.10;;;-1.40;99.90;;;;;;4981183;28;20653;-55
2022/01/22 14:36:32;;;;;;;6.70;2.67;;;-1.40;99.90;;;;;;4993872;28;20207;-55
2022/01/22 14:44:46;;;;;;;6.13;2.57;;;-1.70;99.90;;;;;;4994006;28;20190;-56
2022/01/22 14:47:15;;;;;;;6.73;2.70;;;-1.80;99.90;;;;;;4993739;28;20183;-53
2022/01/22 14:50:00;;;;;;;4.30;1.97;;;-2.00;99.90;;;;;;4993683;28;20193;-54
2022/01/22 14:52:27;;;;;;;6.10;2.97;;;-2.10;99.90;;;;;;4993657;28;20277;-55
2022/01/22 14:54:56;;;;;;;7.73;3.00;;;-2.20;99.90;;;;;;4992056;28;20238;-55